Time;durP1;ratioP1;P1;durP2;ratioP2;P2;SDS_P1;SDS_P2;PMS_P1;PMS_P2;Temp;Humidity;BMP_temperature;BMP_pressure;BME280_temperature;BME280_humidity;BME280_pressure;Samples;Min_cycle;Max_cycle;Signal;HPM_P1;HPM_P2
2021/12/21 00:01:34;;;;;;;16.55;5.07;;;;;;;7.45;100.00;100095.16;5092835;28;20479;-77
2021/12/21 00:04:01;;;;;;;13.75;4.40;;;;;;;7.55;100.00;100086.16;5074630;28;20389;-77
2021/12/21 00:06:29;;;;;;;22.02;6.45;;;;;;;7.14;100.00;100084.41;5092915;28;20445;-77
2021/12/21 00:08:57;;;;;;;18.13;6.70;;;;;;;6.29;100.00;100084.25;5091224;28;20396;-77
2021/12/21 00:11:25;;;;;;;21.25;9.70;;;;;;;6.53;100.00;100079.13;5092691;28;20404;-77
2021/12/21 00:14:00;;;;;;;27.55;8.93;;;;;;;7.12;100.00;100083.97;5091505;28;20431;-77
2021/12/21 00:16:48;;;;;;;17.10;7.32;;;;;;;6.42;100.00;100088.47;5074482;28;20384;-77
2021/12/21 00:22:11;;;;;;;17.63;7.25;;;;;;;7.12;100.00;100095.09;5092587;28;20383;-77
2021/12/21 00:24:47;;;;;;;20.27;6.72;;;;;;;7.30;100.00;100079.47;5092281;28;20908;-77
2021/12/21 00:27:15;;;;;;;23.35;6.78;;;;;;;7.15;100.00;100077.66;5092536;28;20769;-77
2021/12/21 00:29:42;;;;;;;20.77;10.95;;;;;;;7.29;100.00;100077.88;5092177;28;20384;-77
2021/12/21 00:32:10;;;;;;;25.50;12.07;;;;;;;7.10;100.00;100069.69;5091052;28;20400;-77
2021/12/21 00:34:39;;;;;;;24.23;11.20;;;;;;;6.85;100.00;100079.63;5092392;28;20421;-77
2021/12/21 00:37:07;;;;;;;21.53;10.47;;;;;;;7.27;100.00;100066.31;5092116;28;20476;-77
2021/12/21 00:39:34;;;;;;;26.17;11.25;;;;;;;6.65;100.00;100061.47;5073772;28;20457;-77
2021/12/21 00:42:02;;;;;;;22.23;11.10;;;;;;;6.78;100.00;100065.63;5092258;28;20384;-77
2021/12/21 00:44:29;;;;;;;20.07;10.97;;;;;;;7.09;100.00;100068.06;5092145;28;20387;-77
2021/12/21 00:46:58;;;;;;;24.45;10.23;;;;;;;6.44;100.00;100058.34;5091092;28;20479;-77
2021/12/21 00:49:27;;;;;;;26.42;13.65;;;;;;;6.57;100.00;100055.00;5091903;28;20392;-77
2021/12/21 00:51:54;;;;;;;28.98;15.43;;;;;;;6.54;100.00;100049.41;5090601;28;20753;-77
2021/12/21 00:54:26;;;;;;;24.00;11.60;;;;;;;6.76;100.00;100042.97;5092218;28;20410;-77
2021/12/21 00:56:53;;;;;;;21.75;9.10;;;;;;;7.01;100.00;100044.16;5090915;28;20475;-77
2021/12/21 00:59:20;;;;;;;15.57;6.55;;;;;;;7.16;100.00;100046.72;5090519;28;20395;-77
2021/12/21 01:01:47;;;;;;;26.85;6.70;;;;;;;7.16;100.00;100037.59;5090967;28;20377;-77
2021/12/21 01:04:25;;;;;;;13.88;5.93;;;;;;;6.67;100.00;100048.00;5090856;28;20399;-77
2021/12/21 01:10:03;;;;;;;23.08;10.25;;;;;;;6.15;100.00;100032.09;5095737;28;20418;-77
2021/12/21 01:15:19;;;;;;;16.15;7.55;;;;;;;6.31;100.00;100029.19;5078040;28;20487;-77
2021/12/21 01:17:58;;;;;;;24.10;7.38;;;;;;;6.31;100.00;100032.78;5094849;28;20471;-77
2021/12/21 01:20:33;;;;;;;20.17;9.50;;;;;;;6.17;100.00;100028.94;5094338;28;20387;-77
2021/12/21 01:28:06;;;;;;;17.43;5.23;;;;;;;6.09;100.00;100038.34;5095664;28;20392;-77
2021/12/21 01:33:17;;;;;;;16.88;4.80;;;;;;;5.45;100.00;100037.13;5093703;28;20950;-77
2021/12/21 01:35:48;;;;;;;16.90;7.10;;;;;;;5.57;100.00;100039.72;5094488;28;20384;-80
2021/12/21 01:38:56;;;;;;;12.10;4.30;;;;;;;5.54;100.00;100043.22;5095402;28;20495;-76
2021/12/21 01:41:24;;;;;;;17.30;7.20;;;;;;;5.17;100.00;100039.34;5091470;28;20400;-76
2021/12/21 01:49:43;;;;;;;18.23;6.63;;;;;;;5.86;100.00;100026.44;5095268;28;20391;-78
2021/12/21 01:52:15;;;;;;;16.70;6.60;;;;;;;5.70;100.00;100028.47;5095199;28;20396;-78
2021/12/21 01:54:43;;;;;;;16.02;5.50;;;;;;;5.77;100.00;100028.63;5094143;28;20387;-78
2021/12/21 01:57:13;;;;;;;18.40;5.77;;;;;;;6.67;100.00;100023.00;5095045;28;20863;-77
2021/12/21 01:59:44;;;;;;;16.83;6.10;;;;;;;6.84;100.00;100012.16;5095214;28;20385;-75
2021/12/21 02:02:13;;;;;;;19.98;4.95;;;;;;;6.64;100.00;100010.69;5094955;28;20467;-75
2021/12/21 02:04:41;;;;;;;17.25;3.97;;;;;;;6.57;100.00;100009.78;5094978;28;20392;-77
2021/12/21 02:07:12;;;;;;;12.77;3.78;;;;;;;6.91;100.00;100009.47;5093870;28;20466;-78
2021/12/21 02:09:40;;;;;;;14.75;3.60;;;;;;;6.75;100.00;100008.88;5093828;28;20389;-76
2021/12/21 02:12:16;;;;;;;16.95;3.67;;;;;;;6.55;100.00;99998.22;5076860;28;20392;-78
2021/12/21 02:14:52;;;;;;;16.20;3.90;;;;;;;6.62;100.00;100001.13;5094699;28;20936;-76
2021/12/21 02:22:50;;;;;;;16.45;5.50;;;;;;;5.69;100.00;100004.69;5093294;28;20864;-75
2021/12/21 02:27:58;;;;;;;14.75;6.97;;;;;;;5.87;100.00;100006.66;5094562;28;20739;-75
2021/12/21 02:30:27;;;;;;;16.17;4.63;;;;;;;6.12;100.00;100010.63;5094659;28;20380;-78
2021/12/21 02:32:54;;;;;;;17.92;4.07;;;;;;;5.52;100.00;100005.97;5104996;28;20437;-78
2021/12/21 02:35:21;;;;;;;14.63;4.00;;;;;;;5.43;100.00;100014.53;5074373;28;21033;-78
2021/12/21 02:37:48;;;;;;;25.73;9.05;;;;;;;5.33;100.00;100011.56;5072649;28;20759;-75
2021/12/21 02:40:15;;;;;;;25.58;9.38;;;;;;;4.97;100.00;100017.50;5074059;28;20709;-75
2021/12/21 02:42:43;;;;;;;19.20;5.18;;;;;;;5.33;100.00;100009.56;5073974;28;20732;-78
2021/12/21 02:45:11;;;;;;;14.23;4.90;;;;;;;6.27;100.00;100006.13;5073020;28;20732;-78
2021/12/21 02:47:38;;;;;;;13.05;3.95;;;;;;;6.18;100.00;99991.72;5073911;28;20464;-76
2021/12/21 02:50:07;;;;;;;16.33;3.50;;;;;;;5.80;100.00;99991.81;5072495;28;20417;-75
2021/12/21 02:52:34;;;;;;;16.58;3.45;;;;;;;5.94;100.00;99989.34;5073834;28;20868;-76
2021/12/21 02:55:06;;;;;;;11.63;2.55;;;;;;;5.95;100.00;99990.94;5073990;28;20436;-76
2021/12/21 02:57:33;;;;;;;12.95;3.00;;;;;;;6.09;100.00;100003.06;5072657;28;20394;-78
2021/12/21 03:00:01;;;;;;;14.00;2.45;;;;;;;6.33;100.00;99996.31;5056065;28;20776;-76
2021/12/21 03:02:30;;;;;;;12.02;2.92;;;;;;;6.33;100.00;99996.31;5072067;28;20738;-76
2021/12/21 03:04:58;;;;;;;16.38;5.50;;;;;;;6.13;100.00;99986.47;5073717;28;20853;-78
2021/12/21 03:10:14;;;;;;;12.02;3.55;;;;;;;5.99;100.00;99994.56;5073650;28;20389;-78
2021/12/21 03:15:23;;;;;;;14.50;3.60;;;;;;;6.80;100.00;99996.63;5072430;28;20384;-75
2021/12/21 03:17:51;;;;;;;13.10;3.70;;;;;;;6.79;100.00;99992.22;5072151;28;20737;-76
2021/12/21 03:20:20;;;;;;;12.13;3.10;;;;;;;6.50;100.00;99990.22;5073587;28;20386;-76
2021/12/21 03:22:50;;;;;;;13.57;3.10;;;;;;;5.87;100.00;99989.19;5071975;28;20832;-78
2021/12/21 03:25:17;;;;;;;20.53;8.23;;;;;;;5.79;100.00;99981.88;5072170;28;20401;-78
2021/12/21 03:27:45;;;;;;;18.50;8.43;;;;;;;6.52;100.00;99976.78;5072137;28;20410;-78
2021/12/21 03:30:14;;;;;;;14.07;3.38;;;;;;;6.23;100.00;99977.50;5073222;28;20891;-78
2021/12/21 03:32:42;;;;;;;16.17;3.97;;;;;;;5.99;100.00;99980.69;5071656;28;20398;-78
2021/12/21 03:35:10;;;;;;;12.07;3.33;;;;;;;6.37;100.00;99991.63;5072041;28;20386;-78
2021/12/21 03:37:37;;;;;;;16.63;4.00;;;;;;;5.88;100.00;99986.06;5073062;28;20493;-77
2021/12/21 03:40:05;;;;;;;16.73;5.20;;;;;;;5.66;100.00;99978.50;5071989;28;20394;-78
2021/12/21 03:42:38;;;;;;;16.38;4.00;;;;;;;5.30;100.00;99992.88;5072899;28;20919;-78
2021/12/21 03:45:08;;;;;;;19.48;3.78;;;;;;;5.93;100.00;99982.16;5088343;28;20924;-77
2021/12/21 03:47:38;;;;;;;16.05;4.97;;;;;;;5.88;100.00;99979.72;5072910;28;20401;-77
2021/12/21 03:50:13;;;;;;;17.13;3.60;;;;;;;5.52;100.00;99984.59;5071819;28;20891;-78
2021/12/21 03:52:40;;;;;;;12.02;3.13;;;;;;;6.19;100.00;99971.13;5072477;28;20398;-77
2021/12/21 03:55:08;;;;;;;13.50;2.80;;;;;;;6.42;100.00;99980.19;5072906;28;20396;-77
2021/12/21 03:57:35;;;;;;;15.50;5.13;;;;;;;5.68;100.00;99964.28;5071821;28;20431;-78
2021/12/21 04:00:06;;;;;;;17.33;9.48;;;;;;;5.79;100.00;99970.78;5072717;28;20826;-78
2021/12/21 04:02:33;;;;;;;16.95;6.22;;;;;;;5.53;100.00;99969.56;5072688;28;20386;-78
2021/12/21 04:05:00;;;;;;;14.20;3.35;;;;;;;6.05;100.00;99968.09;5090574;28;20423;-77
2021/12/21 04:07:30;;;;;;;12.88;3.78;;;;;;;5.82;100.00;99970.91;5091586;28;20403;-77
2021/12/21 04:09:57;;;;;;;15.52;5.35;;;;;;;6.37;100.00;99963.84;5091635;28;20392;-77
2021/12/21 04:12:25;;;;;;;16.33;7.05;;;;;;;6.02;100.00;99963.31;5090384;28;20495;-77
2021/12/21 04:14:53;;;;;;;22.08;9.13;;;;;;;6.53;100.00;99956.16;5092507;28;20388;-78
2021/12/21 04:17:25;;;;;;;15.90;4.43;;;;;;;5.92;100.00;99953.66;5081758;28;20396;-77
2021/12/21 04:19:52;;;;;;;14.40;3.60;;;;;;;5.89;100.00;99954.41;5091272;28;20400;-78
2021/12/21 04:22:20;;;;;;;13.30;3.27;;;;;;;5.82;100.00;99953.44;5091312;28;20488;-78
2021/12/21 04:24:47;;;;;;;18.40;3.95;;;;;;;5.54;100.00;99960.06;5091590;28;20491;-77
2021/12/21 04:27:16;;;;;;;14.47;3.30;;;;;;;5.62;100.00;99957.44;5074285;28;20553;-78
2021/12/21 04:29:44;;;;;;;17.08;3.28;;;;;;;5.59;100.00;99954.22;5091347;28;20865;-78
2021/12/21 04:32:11;;;;;;;13.70;3.10;;;;;;;6.07;100.00;99949.13;5092433;28;20449;-77
2021/12/21 04:34:39;;;;;;;10.85;2.95;;;;;;;6.38;100.00;99948.78;5091407;28;20499;-78
2021/12/21 04:37:09;;;;;;;14.60;3.10;;;;;;;5.95;100.00;99947.34;5092284;28;20471;-78
2021/12/21 04:39:46;;;;;;;14.53;3.53;;;;;;;6.39;100.00;99950.41;5090708;28;20541;-78
2021/12/21 04:42:13;;;;;;;15.25;4.30;;;;;;;6.72;100.00;99947.69;5090349;28;20404;-78
2021/12/21 04:44:41;;;;;;;13.27;3.75;;;;;;;6.81;100.00;99946.25;5091966;28;20400;-77
2021/12/21 04:47:08;;;;;;;9.55;3.70;;;;;;;6.97;100.00;99946.03;5092446;28;20397;-78
2021/12/21 04:49:36;;;;;;;13.50;3.83;;;;;;;7.00;100.00;99942.50;5092062;28;20400;-77
2021/12/21 04:52:03;;;;;;;11.45;2.95;;;;;;;6.92;100.00;99935.28;5090926;28;20406;-78
2021/12/21 04:54:30;;;;;;;10.20;3.15;;;;;;;7.03;100.00;99928.66;5092274;28;20388;-78
2021/12/21 04:56:58;;;;;;;12.80;4.30;;;;;;;6.87;100.00;99921.69;5090726;28;20400;-78
2021/12/21 04:59:28;;;;;;;14.70;4.60;;;;;;;7.05;100.00;99922.72;5088748;28;20392;-77
2021/12/21 05:02:19;;;;;;;13.20;4.07;;;;;;;6.69;100.00;99927.03;5085073;28;20402;-77
2021/12/21 05:04:46;;;;;;;14.32;3.88;;;;;;;5.73;100.00;99930.69;5079293;28;20397;-77
2021/12/21 05:07:17;;;;;;;10.75;3.58;;;;;;;6.62;100.00;99926.94;5083695;28;20399;-77
2021/12/21 05:09:50;;;;;;;20.77;9.48;;;;;;;5.90;100.00;99928.25;5091323;28;20450;-77
2021/12/21 05:12:20;;;;;;;22.33;10.23;;;;;;;5.34;100.00;99933.59;5089507;28;20400;-78
2021/12/21 05:14:47;;;;;;;13.98;5.40;;;;;;;4.93;100.00;99939.91;5083270;28;20399;-77
2021/12/21 05:17:15;;;;;;;16.60;7.20;;;;;;;5.77;100.00;99946.19;5081690;28;20452;-77
2021/12/21 05:19:42;;;;;;;15.88;5.65;;;;;;;6.30;100.00;99936.78;5082190;28;20741;-78
2021/12/21 05:22:09;;;;;;;15.67;5.37;;;;;;;6.44;100.00;99936.19;5092757;28;20503;-78
2021/12/21 05:24:36;;;;;;;16.70;5.97;;;;;;;6.66;100.00;99932.53;5067709;28;20417;-77
2021/12/21 05:27:05;;;;;;;13.90;5.65;;;;;;;6.78;100.00;99921.19;5088479;28;20487;-77
2021/12/21 05:29:32;;;;;;;14.82;5.97;;;;;;;6.84;100.00;99922.47;5090697;28;20377;-77
2021/12/21 05:32:05;;;;;;;13.48;5.63;;;;;;;6.42;100.00;99917.13;5091445;28;20395;-78
2021/12/21 05:34:32;;;;;;;12.57;4.55;;;;;;;6.67;100.00;99911.91;5089810;28;20408;-78
2021/12/21 05:37:05;;;;;;;17.30;5.63;;;;;;;6.19;100.00;99910.06;5090108;28;20404;-78
2021/12/21 05:40:18;;;;;;;14.25;4.97;;;;;;;5.62;100.00;99908.31;5086613;28;20477;-77
2021/12/21 05:42:25;;;;;;;11.53;5.30;;;;;;;6.28;100.00;99916.13;5083422;28;20489;-78
2021/12/21 05:44:52;;;;;;;23.35;12.30;;;;;;;5.92;100.00;99914.81;5091332;28;20396;-78
2021/12/21 05:47:20;;;;;;;20.13;11.65;;;;;;;6.27;100.00;99914.56;5091685;28;20384;-78
2021/12/21 05:49:47;;;;;;;18.42;8.13;;;;;;;6.62;100.00;99906.72;5089452;28;20396;-77
2021/12/21 05:52:14;;;;;;;17.25;6.65;;;;;;;6.71;100.00;99907.22;5091445;28;20400;-78
2021/12/21 05:54:41;;;;;;;15.65;4.30;;;;;;;6.07;100.00;99907.50;5091971;28;20400;-78
2021/12/21 05:57:09;;;;;;;13.40;4.53;;;;;;;5.95;100.00;99908.53;5094159;28;20785;-77
2021/12/21 05:59:36;;;;;;;19.73;8.50;;;;;;;5.72;100.00;99916.03;5095199;28;20758;-77
2021/12/21 06:02:03;;;;;;;16.00;7.22;;;;;;;5.37;100.00;99921.75;5094891;28;20446;-77
2021/12/21 06:04:37;;;;;;;17.80;8.13;;;;;;;5.56;100.00;99916.16;5094083;28;20415;-77
2021/12/21 06:07:04;;;;;;;16.35;8.05;;;;;;;6.43;100.00;99929.84;5093591;28;20773;-78
2021/12/21 06:09:32;;;;;;;16.20;8.15;;;;;;;6.40;100.00;99916.72;5094605;28;20449;-78
2021/12/21 06:12:10;;;;;;;15.07;6.05;;;;;;;5.57;100.00;99926.06;5092482;28;20483;-77
2021/12/21 06:22:54;;;;;;;22.98;11.25;;;;;;;6.71;100.00;99935.78;5059255;28;20532;-77
2021/12/21 06:28:02;;;;;;;14.75;5.43;;;;;;;6.43;100.00;99917.94;5055154;28;20549;-77
2021/12/21 06:30:30;;;;;;;16.02;6.10;;;;;;;6.24;100.00;99918.06;5085731;28;20415;-77
2021/12/21 06:32:57;;;;;;;21.30;7.30;;;;;;;6.07;100.00;99921.38;5080540;28;20400;-78
2021/12/21 06:35:25;;;;;;;14.07;6.73;;;;;;;6.23;100.00;99914.50;5091807;28;20479;-78
2021/12/21 06:37:53;;;;;;;15.27;7.00;;;;;;;5.86;100.00;99915.50;5055362;28;20400;-78
2021/12/21 06:40:25;;;;;;;24.17;10.15;;;;;;;5.70;100.00;99912.00;5064571;28;20492;-78
2021/12/21 06:42:53;;;;;;;18.27;10.10;;;;;;;6.05;100.00;99918.16;5073474;28;20407;-77
2021/12/21 06:45:30;;;;;;;16.83;9.48;;;;;;;6.15;100.00;99917.53;5088069;28;20804;-77
2021/12/21 06:53:30;;;;;;;20.20;10.10;;;;;;;6.78;100.00;99907.31;5075271;28;21047;-77
2021/12/21 06:55:57;;;;;;;20.10;12.00;;;;;;;6.56;100.00;99916.53;5065771;28;20991;-78
2021/12/21 06:58:24;;;;;;;22.13;11.50;;;;;;;6.17;100.00;99906.84;5083039;28;20400;-78
2021/12/21 07:00:54;;;;;;;17.77;10.32;;;;;;;6.34;100.00;99915.44;5077132;28;20843;-78
2021/12/21 07:03:22;;;;;;;14.88;7.00;;;;;;;5.52;100.00;99923.63;5091918;28;20392;-78
2021/12/21 07:05:54;;;;;;;13.73;5.80;;;;;;;6.21;100.00;99907.72;5068296;28;20932;-77
2021/12/21 07:08:27;;;;;;;11.85;6.00;;;;;;;6.53;100.00;99903.38;5088072;28;20415;-78
2021/12/21 07:19:34;;;;;;;9.95;4.90;;;;;;;5.36;100.00;99906.28;5060799;28;21074;-78
2021/12/21 07:22:02;;;;;;;12.88;4.75;;;;;;;5.60;100.00;99911.47;5060617;28;20975;-78
2021/12/21 07:24:29;;;;;;;14.63;5.97;;;;;;;5.21;100.00;99912.75;5044228;28;21155;-77
2021/12/21 07:26:56;;;;;;;14.18;7.20;;;;;;;5.15;100.00;99908.66;5067931;28;20547;-77
2021/12/21 07:29:24;;;;;;;19.55;12.75;;;;;;;4.61;100.00;99905.22;5031460;28;20400;-77
2021/12/21 07:31:52;;;;;;;20.40;13.73;;;;;;;5.32;100.00;99901.84;5065686;28;20421;-78
2021/12/21 07:34:19;;;;;;;19.50;10.63;;;;;;;5.06;100.00;99916.41;5058054;28;20404;-78
2021/12/21 07:36:47;;;;;;;17.27;6.18;;;;;;;5.32;100.00;99924.00;5051015;28;20408;-78
2021/12/21 07:39:20;;;;;;;9.85;5.32;;;;;;;5.93;100.00;99926.69;5059342;28;20893;-78
2021/12/21 07:41:53;;;;;;;10.30;4.47;;;;;;;5.65;100.00;99923.44;5053902;28;20395;-78
2021/12/21 07:44:23;;;;;;;13.98;5.50;;;;;;;5.59;100.00;99917.38;5048905;28;20517;-78
2021/12/21 07:46:51;;;;;;;12.70;6.03;;;;;;;5.23;100.00;99915.94;5051551;28;20905;-78
2021/12/21 07:49:18;;;;;;;13.60;5.40;;;;;;;5.40;100.00;99921.03;5084881;28;20391;-78
2021/12/21 07:51:48;;;;;;;12.50;4.07;;;;;;;5.13;100.00;99929.59;5085429;28;20455;-78
2021/12/21 07:54:17;;;;;;;21.50;13.23;;;;;;;5.17;100.00;99927.69;5100605;28;20437;-79
2021/12/21 07:56:45;;;;;;;24.88;8.57;;;;;;;5.25;100.00;99916.41;5090414;28;20404;-79
2021/12/21 07:59:13;;;;;;;13.30;6.90;;;;;;;5.41;100.00;99921.81;5090917;28;20407;-80
2021/12/21 08:01:42;;;;;;;10.65;4.60;;;;;;;5.30;100.00;99927.16;5090828;28;20754;-80
2021/12/21 08:04:12;;;;;;;10.90;4.63;;;;;;;5.44;100.00;99927.41;5090878;28;20479;-80
2021/12/21 08:06:43;;;;;;;14.70;6.60;;;;;;;5.09;100.00;99910.13;5086454;28;20397;-81
2021/12/21 08:09:11;;;;;;;15.00;7.30;;;;;;;4.85;100.00;99927.06;5068293;28;20483;-81
2021/12/21 08:14:08;;;;;;;12.60;4.70;;;;;;;4.67;100.00;99914.84;5091002;28;20408;-82
2021/12/21 08:16:38;;;;;;;10.65;4.25;;;;;;;4.87;100.00;99912.84;5091933;28;20415;-80
2021/12/21 08:19:05;;;;;;;8.68;4.38;;;;;;;4.70;100.00;99919.66;5089992;28;20537;-81
2021/12/21 08:21:32;;;;;;;10.70;6.35;;;;;;;4.49;100.00;99913.66;5071733;28;20389;-81
2021/12/21 08:24:00;;;;;;;11.23;6.70;;;;;;;4.65;100.00;99919.16;5089517;28;20403;-81
2021/12/21 08:26:27;;;;;;;11.67;5.37;;;;;;;4.86;100.00;99912.03;5073545;28;20404;-82
2021/12/21 08:28:57;;;;;;;8.88;4.80;;;;;;;4.75;100.00;99902.75;5092559;28;20400;-81
2021/12/21 08:31:25;;;;;;;10.82;4.90;;;;;;;4.71;100.00;99921.22;5092458;28;20443;-81
2021/12/21 08:33:52;;;;;;;11.20;6.18;;;;;;;4.66;100.00;99913.25;5091984;28;20403;-81
2021/12/21 08:36:22;;;;;;;13.27;9.13;;;;;;;4.62;100.00;99917.88;5089740;28;20461;-80
2021/12/21 08:38:49;;;;;;;10.32;7.50;;;;;;;5.03;100.00;99921.88;5084404;28;20411;-79
2021/12/21 08:41:17;;;;;;;11.07;7.13;;;;;;;5.39;100.00;99924.94;5091489;28;20388;-79
2021/12/21 08:43:44;;;;;;;10.57;4.78;;;;;;;4.49;100.00;99937.75;5090074;28;20376;-79
2021/12/21 08:46:13;;;;;;;49.85;21.30;;;;;;;4.94;100.00;99930.41;5090513;28;20412;-78
2021/12/21 08:48:40;;;;;;;7.18;4.13;;;;;;;4.80;100.00;99932.88;5091777;28;20467;-79
2021/12/21 08:51:08;;;;;;;12.05;6.93;;;;;;;5.41;100.00;99936.47;5086946;28;20441;-81
2021/12/21 08:53:42;;;;;;;9.45;6.10;;;;;;;4.52;100.00;99937.84;5101312;28;20755;-81
2021/12/21 08:56:10;;;;;;;10.65;6.72;;;;;;;4.97;100.00;99943.53;5088780;28;20396;-81
2021/12/21 08:58:38;;;;;;;17.65;6.63;;;;;;;5.64;100.00;99930.94;5071213;28;20395;-80
2021/12/21 09:01:05;;;;;;;11.15;6.47;;;;;;;5.33;100.00;99937.50;5055797;28;20852;-79
2021/12/21 09:03:35;;;;;;;12.38;5.32;;;;;;;5.46;100.00;99916.78;5071077;28;20411;-80
2021/12/21 09:06:03;;;;;;;9.30;6.75;;;;;;;5.79;100.00;99918.09;5087760;28;20439;-80
2021/12/21 09:08:30;;;;;;;8.90;4.90;;;;;;;6.06;100.00;99914.25;5088976;28;20402;-81
2021/12/21 09:11:03;;;;;;;13.07;5.68;;;;;;;5.12;100.00;99934.34;5089234;28;20471;-79
2021/12/21 09:13:34;;;;;;;8.40;5.57;;;;;;;5.18;100.00;99935.63;5088429;28;20396;-78
2021/12/21 09:16:01;;;;;;;10.30;5.50;;;;;;;5.57;100.00;99941.91;5087038;28;20400;-77
2021/12/21 09:18:31;;;;;;;8.43;5.18;;;;;;;5.95;100.00;99930.72;5087691;28;20396;-78
2021/12/21 09:20:58;;;;;;;9.73;5.07;;;;;;;5.66;100.00;99923.06;5087036;28;20457;-79
2021/12/21 09:23:28;;;;;;;7.65;5.18;;;;;;;5.67;100.00;99923.84;5087971;28;20384;-85
2021/12/21 09:25:55;;;;;;;8.93;5.23;;;;;;;5.10;100.00;99933.13;5088244;28;20396;-79
2021/12/21 09:28:25;;;;;;;8.10;4.93;;;;;;;4.84;100.00;99930.22;5070952;28;20402;-78
2021/12/21 09:30:58;;;;;;;11.88;6.03;;;;;;;5.67;100.00;99941.28;5074439;28;21294;-80
2021/12/21 09:33:34;;;;;;;11.00;6.18;;;;;;;5.15;100.00;99936.38;5090357;28;21020;-79
2021/12/21 09:36:04;;;;;;;16.15;6.47;;;;;;;5.88;100.00;99935.34;5102225;28;20413;-79
2021/12/21 09:38:31;;;;;;;46.97;33.83;;;;;;;5.95;100.00;99952.09;5089257;28;20393;-77
2021/12/21 09:40:59;;;;;;;6.35;4.15;;;;;;;6.07;100.00;99935.25;5089182;28;21337;-79
2021/12/21 09:43:28;;;;;;;10.10;6.50;;;;;;;6.19;100.00;99935.84;5085131;28;20461;-78
2021/12/21 09:45:57;;;;;;;13.80;8.43;;;;;;;6.03;100.00;99934.41;5091632;28;20465;-79
2021/12/21 09:48:35;;;;;;;8.47;4.13;;;;;;;5.45;100.00;99939.31;5090071;28;20444;-79
2021/12/21 09:51:03;;;;;;;8.40;4.32;;;;;;;5.42;100.00;99940.84;5089848;28;20399;-79
2021/12/21 09:53:35;;;;;;;7.22;4.25;;;;;;;5.35;100.00;99932.41;5090786;28;20573;-78
2021/12/21 09:56:05;;;;;;;58.05;41.25;;;;;;;5.50;100.00;99945.34;5090959;28;20483;-80
2021/12/21 09:58:35;;;;;;;10.57;5.27;;;;;;;5.32;100.00;99941.47;5086451;28;20384;-80
2021/12/21 10:01:04;;;;;;;11.25;7.65;;;;;;;6.00;100.00;99949.03;5086298;28;20810;-79
2021/12/21 10:03:32;;;;;;;14.37;8.70;;;;;;;5.95;100.00;99941.00;5092056;28;20471;-79
2021/12/21 10:06:12;;;;;;;7.70;5.38;;;;;;;6.25;100.00;99934.34;5091815;28;20384;-78
2021/12/21 10:08:40;;;;;;;8.85;5.43;;;;;;;6.42;100.00;99927.47;5069853;28;20495;-78
2021/12/21 10:11:17;;;;;;;19.60;13.57;;;;;;;6.32;100.00;99928.09;5087933;28;20400;-78
2021/12/21 10:13:45;;;;;;;8.10;6.00;;;;;;;5.75;100.00;99936.66;5091867;28;20392;-78
2021/12/21 10:16:19;;;;;;;28.20;25.20;;;;;;;6.09;100.00;99933.69;5089903;28;20403;-77
2021/12/21 10:18:47;;;;;;;16.57;7.63;;;;;;;5.98;100.00;99934.72;5090504;28;20491;-79
2021/12/21 10:21:16;;;;;;;9.85;6.93;;;;;;;5.70;100.00;99935.00;5091025;28;20385;-79
2021/12/21 10:23:46;;;;;;;11.70;7.50;;;;;;;5.73;100.00;99917.63;5091628;28;20403;-78
2021/12/21 10:26:23;;;;;;;10.02;7.20;;;;;;;5.68;100.00;99922.69;5091073;28;20408;-80
2021/12/21 10:28:52;;;;;;;12.80;8.88;;;;;;;4.41;100.00;99924.94;5084697;28;20392;-75
2021/12/21 10:31:26;;;;;;;16.23;9.75;;;;;;;4.76;100.00;99932.03;5090904;28;20388;-78
2021/12/21 10:33:59;;;;;;;14.68;9.68;;;;;;;4.53;100.00;99920.06;5090350;28;20863;-79
2021/12/21 10:36:29;;;;;;;13.35;10.45;;;;;;;4.56;100.00;99918.56;5087060;28;20877;-79
2021/12/21 10:38:59;;;;;;;14.77;9.77;;;;;;;5.06;100.00;99921.13;5089610;28;20405;-77
2021/12/21 10:41:34;;;;;;;14.82;10.82;;;;;;;4.75;100.00;99922.13;5069062;28;20448;-80
2021/12/21 10:44:04;;;;;;;20.55;13.63;;;;;;;4.95;100.00;99915.41;5071385;28;20469;-78
2021/12/21 10:46:35;;;;;;;17.87;11.60;;;;;;;4.75;100.00;99910.25;5070638;28;20393;-79
2021/12/21 10:49:10;;;;;;;17.00;11.50;;;;;;;5.34;100.00;99907.84;5075672;28;20399;-80
2021/12/21 10:51:55;;;;;;;15.43;11.02;;;;;;;5.80;100.00;99908.63;5090274;28;20400;-81
2021/12/21 10:54:50;;;;;;;15.43;10.90;;;;;;;6.29;100.00;99918.53;5087546;28;20395;-81
2021/12/21 10:57:23;;;;;;;14.38;10.30;;;;;;;6.54;100.00;99910.56;5086510;28;20396;-79
2021/12/21 10:59:56;;;;;;;12.27;9.10;;;;;;;6.50;100.00;99898.59;5055378;28;20388;-79
2021/12/21 11:02:29;;;;;;;11.88;8.90;;;;;;;5.42;100.00;99915.13;5088508;28;20396;-79
2021/12/21 11:05:11;;;;;;;18.25;9.35;;;;;;;5.14;100.00;99917.34;5089128;28;20385;-79
2021/12/21 11:10:14;;;;;;;10.60;8.63;;;;;;;6.29;100.00;99913.00;5086721;28;20446;-77
2021/12/21 11:12:57;;;;;;;17.02;10.13;;;;;;;5.07;100.00;99911.69;5078578;28;20408;-77
2021/12/21 11:15:36;;;;;;;17.17;11.02;;;;;;;5.76;100.00;99911.34;5088951;28;20426;-78
2021/12/21 11:18:14;;;;;;;18.90;12.52;;;;;;;6.14;100.00;99902.03;5089900;28;20400;-79
2021/12/21 11:20:48;;;;;;;18.30;12.10;;;;;;;6.52;100.00;99894.28;5084994;28;20889;-78
2021/12/21 11:23:20;;;;;;;17.75;12.10;;;;;;;4.40;100.00;99898.41;5064233;28;20405;-79
2021/12/21 11:25:53;;;;;;;18.23;14.23;;;;;;;5.94;100.00;99900.56;5086191;28;20388;-79
2021/12/21 11:28:35;;;;;;;18.73;12.83;;;;;;;5.40;100.00;99895.28;5088780;28;20392;-79
2021/12/21 11:31:07;;;;;;;17.50;13.13;;;;;;;6.06;100.00;99892.03;5088483;28;20754;-79
2021/12/21 11:33:44;;;;;;;23.37;14.33;;;;;;;5.15;100.00;99878.19;5086688;28;20814;-79
2021/12/21 11:39:04;;;;;;;15.85;12.48;;;;;;;4.54;100.00;99887.66;5087952;28;20879;-78
2021/12/21 11:41:36;;;;;;;20.92;14.88;;;;;;;4.69;100.00;99890.38;5087561;28;20902;-77
2021/12/21 11:44:12;;;;;;;24.75;16.45;;;;;;;4.83;100.00;99884.31;5090155;28;20864;-79
2021/12/21 11:46:53;;;;;;;20.08;15.55;;;;;;;4.38;100.00;99868.34;5091671;28;20486;-79
2021/12/21 11:49:34;;;;;;;21.27;17.08;;;;;;;4.01;100.00;99894.00;5088643;28;20875;-79
2021/12/21 11:52:07;;;;;;;25.52;18.38;;;;;;;4.11;100.00;99888.69;5089748;28;20725;-79
2021/12/21 11:54:56;;;;;;;26.67;18.75;;;;;;;4.38;100.00;99887.72;5091787;28;20867;-80
2021/12/21 11:57:41;;;;;;;26.60;19.35;;;;;;;4.11;100.00;99882.34;5090512;28;20400;-79
2021/12/21 12:00:12;;;;;;;27.58;20.00;;;;;;;4.80;100.00;99880.28;5090387;28;20441;-80
2021/12/21 12:02:43;;;;;;;27.25;20.27;;;;;;;4.91;100.00;99875.75;5092125;28;20450;-80
2021/12/21 12:05:19;;;;;;;26.67;19.87;;;;;;;4.56;100.00;99868.72;5090534;28;20431;-79
2021/12/21 12:07:59;;;;;;;29.38;20.38;;;;;;;4.29;100.00;99878.00;5090762;28;20424;-79
2021/12/21 12:10:26;;;;;;;29.38;19.33;;;;;;;4.73;100.00;99880.16;5090369;28;20404;-80
2021/12/21 12:12:54;;;;;;;24.25;18.98;;;;;;;4.56;100.00;99875.06;5090530;28;20384;-80
2021/12/21 12:15:21;;;;;;;25.75;19.45;;;;;;;4.74;100.00;99861.59;5091680;28;20424;-80
2021/12/21 12:17:51;;;;;;;29.73;19.08;;;;;;;5.23;100.00;99874.38;5090371;28;20923;-78
2021/12/21 12:20:27;;;;;;;24.42;18.13;;;;;;;5.59;100.00;99862.72;5090042;28;20432;-79
2021/12/21 12:23:05;;;;;;;22.15;17.85;;;;;;;5.86;100.00;99857.25;5091658;28;20396;-79
2021/12/21 12:25:35;;;;;;;24.73;17.63;;;;;;;6.28;100.00;99852.31;5091471;28;20398;-79
2021/12/21 12:28:02;;;;;;;18.98;15.20;;;;;;;6.41;100.00;99848.09;5080137;28;20388;-79
2021/12/21 12:30:30;;;;;;;21.25;14.20;;;;;;;6.35;100.00;99847.66;5089859;28;20408;-79
2021/12/21 12:33:01;;;;;;;17.40;15.07;;;;;;;6.30;100.00;99839.63;5090795;28;20484;-79
2021/12/21 12:35:34;;;;;;;18.35;14.80;;;;;;;5.75;100.00;99859.81;5090190;28;20400;-79
2021/12/21 12:38:18;;;;;;;23.02;16.55;;;;;;;5.33;100.00;99870.22;5089979;28;20480;-79
2021/12/21 12:40:53;;;;;;;19.33;14.65;;;;;;;6.19;100.00;99854.56;5090444;28;20613;-79
2021/12/21 12:43:25;;;;;;;20.00;16.33;;;;;;;5.49;100.00;99868.91;5090834;28;20389;-79
2021/12/21 12:46:03;;;;;;;21.15;15.82;;;;;;;5.97;100.00;99855.44;5089089;28;20392;-79